Map

Track Data

SID SEASON NUMBER BASIN SUBBASIN NAME ISO_TIME NATURE LAT LON WMO_WIND WMO_PRES WMO_AGENCY TRACK_TYPE DIST2LAND LANDFALL IFLAG USA_AGENCY USA_ATCF_ID USA_LAT USA_LON USA_RECORD USA_STATUS USA_WIND USA_PRES USA_SSHS USA_R34_NE USA_R34_SE USA_R34_SW USA_R34_NW USA_R50_NE USA_R50_SE USA_R50_SW USA_R50_NW USA_R64_NE USA_R64_SE USA_R64_SW USA_R64_NW USA_POCI USA_ROCI USA_RMW USA_EYE TOKYO_LAT TOKYO_LON TOKYO_GRADE TOKYO_WIND TOKYO_PRES TOKYO_R50_DIR TOKYO_R50_LONG TOKYO_R50_SHORT TOKYO_R30_DIR TOKYO_R30_LONG TOKYO_R30_SHORT TOKYO_LAND CMA_LAT CMA_LON CMA_CAT CMA_WIND CMA_PRES HKO_LAT HKO_LON HKO_CAT HKO_WIND HKO_PRES NEWDELHI_LAT NEWDELHI_LON NEWDELHI_GRADE NEWDELHI_WIND NEWDELHI_PRES NEWDELHI_CI NEWDELHI_DP NEWDELHI_POCI REUNION_LAT REUNION_LON REUNION_TYPE REUNION_WIND REUNION_PRES REUNION_TNUM REUNION_CI REUNION_RMW REUNION_R34_NE REUNION_R34_SE REUNION_R34_SW REUNION_R34_NW REUNION_R50_NE REUNION_R50_SE REUNION_R50_SW REUNION_R50_NW REUNION_R64_NE REUNION_R64_SE REUNION_R64_SW REUNION_R64_NW BOM_LAT BOM_LON BOM_TYPE BOM_WIND BOM_PRES BOM_TNUM BOM_CI BOM_RMW BOM_R34_NE BOM_R34_SE BOM_R34_SW BOM_R34_NW BOM_R50_NE BOM_R50_SE BOM_R50_SW BOM_R50_NW BOM_R64_NE BOM_R64_SE BOM_R64_SW BOM_R64_NW BOM_ROCI BOM_POCI BOM_EYE BOM_POS_METHOD BOM_PRES_METHOD NADI_LAT NADI_LON NADI_CAT NADI_WIND NADI_PRES WELLINGTON_LAT WELLINGTON_LON WELLINGTON_WIND WELLINGTON_PRES DS824_LAT DS824_LON DS824_STAGE DS824_WIND DS824_PRES TD9636_LAT TD9636_LON TD9636_STAGE TD9636_WIND TD9636_PRES TD9635_LAT TD9635_LON TD9635_WIND TD9635_PRES TD9635_ROCI NEUMANN_LAT NEUMANN_LON NEUMANN_CLASS NEUMANN_WIND NEUMANN_PRES MLC_LAT MLC_LON MLC_CLASS MLC_WIND MLC_PRES USA_GUST BOM_GUST BOM_GUST_PER REUNION_GUST REUNION_GUST_PER USA_SEAHGT USA_SEARAD_NE USA_SEARAD_SE USA_SEARAD_SW USA_SEARAD_NW STORM_SPEED STORM_DIR
1996067S16138 1996 20 SP EA ETHEL 1996-03-07 06:00:00 TS -15.6000 137.500 main 55 55 O___________O_ jtwc_sh SH191996 -15.6000 137.500 15 -1 -15.6000 137.500 TC 15 5 67
1996067S16138 1996 20 SP EA ETHEL 1996-03-07 09:00:00 TS -15.4951 137.760 main 79 79 P___________P_ SH191996 -15.4951 137.760 17 -1 -15.4951 137.760 TC 17 5 68
1996067S16138 1996 20 SP EA ETHEL 1996-03-07 12:00:00 TS -15.4143 137.986 25 bom main 95 95 O_____O_____O_ jtwc_sh SH191996 -15.4000 138.000 20 -1 -15.5000 137.900 20 25 1.50000 -15.4000 138.000 TC 20 4 71
1996067S16138 1996 20 SP EA ETHEL 1996-03-07 15:00:00 TS -15.3485 138.200 main 114 114 P_____P_____P_ SH191996 -15.3275 138.208 20 -1 -15.4326 138.170 20 25 -15.3275 138.208 TC 20 4 78
1996067S16138 1996 20 SP EA ETHEL 1996-03-07 18:00:00 TS -15.3273 138.400 25 bom main 125 123 O_____O_____O_ jtwc_sh SH191996 -15.3000 138.400 20 -1 -15.4000 138.400 20 25 1.50000 -15.3000 138.400 TC 20 4 94
1996067S16138 1996 20 SP EA ETHEL 1996-03-07 21:00:00 TS -15.3766 138.588 main 131 131 P_____P_____P_ SH191996 -15.3575 138.600 20 -1 -15.4150 138.565 20 25 -15.3575 138.600 TC 20 4 102
1996067S16138 1996 20 SP EA ETHEL 1996-03-08 00:00:00 TS -15.4000 138.767 25 bom main 147 147 O_____O_____O_ jtwc_sh SH191996 -15.4000 138.800 20 -1 -15.4000 138.700 20 25 2.00000 1008 -15.4000 138.800 TC 20 3 79
1996067S16138 1996 20 SP EA ETHEL 1996-03-08 03:00:00 TS -15.3132 138.925 main 163 163 P_____P_____P_ SH191996 -15.3300 138.993 22 -1 -15.2798 138.790 20 27 -15.3300 138.993 TC 22 4 57
1996067S16138 1996 20 SP EA ETHEL 1996-03-08 06:00:00 TS -15.1667 139.133 30 998 bom main 186 186 O_____O_____O_ jtwc_sh SH191996 -15.2000 139.200 25 -1 -15.1000 139.000 20 30 998 2.50000 187 -15.2000 139.200 TC 25 6 63
1996067S16138 1996 20 SP EA ETHEL 1996-03-08 09:00:00 TS -15.0352 139.491 main 219 186 P_____P_____P_ SH191996 -15.0800 139.450 27 -1 -14.9456 139.573 20 32 996 187 -15.0800 139.450 TC 27 8 64
1996067S16138 1996 20 SP EA ETHEL 1996-03-08 12:00:00 TS -14.8333 139.833 35 995 bom main 186 161 O_____O_____O_ jtwc_sh SH191996 -14.9000 139.700 30 -1 -14.7000 140.100 21 35 995 2.50000 187 -14.9000 139.700 TC 30 7 43
1996067S16138 1996 20 SP EA ETHEL 1996-03-08 15:00:00 TS -14.5083 140.009 main 161 151 P_____P_____P_ SH191996 -14.6300 139.930 32 -1 -14.2648 140.167 21 40 994 206 -14.6300 139.930 TC 32 8 20
1996067S16138 1996 20 SP EA ETHEL 1996-03-08 18:00:00 TS -14.1333 140.100 45 993 bom main 152 140 O_____O_____O_ jtwc_sh SH191996 -14.3000 140.100 35 0 -13.8000 140.100 30 45 993 3.00000 226 -14.3000 140.100 TC 35 8 11
1996067S16138 1996 20 SP EA ETHEL 1996-03-08 21:00:00 TS -13.7750 140.154 main 140 140 P_____P_____P_ SH191996 -13.9424 140.150 37 0 -13.4400 140.163 30 45 991 185 -13.9424 140.150 TC 37 7 11
1996067S16138 1996 20 SP EA ETHEL 1996-03-09 00:00:00 TS -13.4667 140.233 45 990 bom main 147 131 O_____O_____O_ jtwc_sh SH191996 -13.6000 140.200 40 0 -13.2000 140.300 30 45 990 3.00000 145 1008 -13.6000 140.200 TC 40 6 26
1996067S16138 1996 20 SP EA ETHEL 1996-03-09 03:00:00 TS -13.2558 140.410 main 131 98 P_____P_____P_ SH191996 -13.3200 140.355 40 0 -13.1275 140.520 30 45 988 152 -13.3200 140.355 TC 40 6 49
1996067S16138 1996 20 SP EA ETHEL 1996-03-09 06:00:00 TS -13.1000 140.667 45 987 bom main 98 65 O_____O_____O_ jtwc_sh SH191996 -13.1000 140.600 40 0 -13.1000 140.800 30 45 987 3.00000 160 -13.1000 140.600 TC 40 6 61
1996067S16138 1996 20 SP EA ETHEL 1996-03-09 09:00:00 TS -12.9426 140.993 main 66 39 P_____P_____P_ SH191996 -12.9276 140.935 40 0 -12.9725 141.108 30 47 986 187 -12.9276 140.935 TC 42 7 65
1996067S16138 1996 20 SP EA ETHEL 1996-03-09 12:00:00 TS -12.8000 141.333 50 985 bom main 39 11 O_____O_____O_ jtwc_sh SH191996 -12.8000 141.300 40 0 -12.8000 141.400 30 50 985 3.50000 214 -12.8000 141.300 TC 45 6 63
1996067S16138 1996 20 SP EA ETHEL 1996-03-09 15:00:00 TS -12.6540 141.585 main 11 0 P_____P_____P_ SH191996 -12.6849 141.600 42 0 -12.5922 141.555 30 55 982 209 -12.6849 141.600 TC 50 6 63
1996067S16138 1996 20 SP EA ETHEL 1996-03-09 18:00:00 TS -12.5333 141.867 60 980 bom main 0 0 O_____O_____O_ jtwc_sh SH191996 -12.6000 141.900 45 0 -12.4000 141.800 30 60 980 3.50000 205 -12.6000 141.900 TC 55 7 71
1996067S16138 1996 20 SP EA ETHEL 1996-03-09 21:00:00 TS -12.4316 142.260 main 0 0 P_____P_____P_ SH191996 -12.5273 142.213 45 0 -12.2403 142.355 30 45 986 209 -12.5273 142.213 TC 52 9 81
1996067S16138 1996 20 SP EA ETHEL 1996-03-10 00:00:00 TS -12.4000 142.733 30 993 bom main 0 0 O_____O_____O_ jtwc_sh SH191996 -12.5000 142.600 45 0 -12.2000 143.000 20 30 993 214 1008 -12.5000 142.600 TC 50 10 92
1996067S16138 1996 20 SP EA ETHEL 1996-03-10 03:00:00 TS -12.4701 143.269 main 10 10 P_____P_____P_ SH191996 -12.5276 143.135 45 0 -12.3549 143.537 20 30 991 241 -12.5276 143.135 TC 47 11 101
1996067S16138 1996 20 SP EA ETHEL 1996-03-10 06:00:00 TS -12.6000 143.800 30 990 bom main 43 43 O_____O_____O_ jtwc_sh SH191996 -12.6000 143.700 45 0 -12.6000 144.000 20 30 990 2.00000 268 -12.6000 143.700 TC 45 10 105
1996067S16138 1996 20 SP EA ETHEL 1996-03-10 09:00:00 TS -12.7308 144.257 main 89 87 P_____P_____P_ SH191996 -12.6925 144.195 45 0 -12.8074 144.380 20 35 990 254 -12.6925 144.195 TC 45 9 108
1996067S16138 1996 20 SP EA ETHEL 1996-03-10 12:00:00 TS -12.8667 144.633 40 990 bom main 119 119 O_____O_____O_ jtwc_sh SH191996 -12.8000 144.600 45 0 -13.0000 144.700 21 40 990 2.50000 241 -12.8000 144.600 TC 45 7 112
1996067S16138 1996 20 SP EA ETHEL 1996-03-10 15:00:00 TS -12.9933 144.935 main 147 147 P_____P_____P_ SH191996 -12.8999 144.888 45 0 -13.1800 145.030 21 40 990 254 -12.8999 144.888 TC 45 6 114
1996067S16138 1996 20 SP EA ETHEL 1996-03-10 18:00:00 TS -13.1000 145.167 40 990 bom main 154 154 O_____O_____O_ jtwc_sh SH191996 -13.0000 145.100 45 0 -13.3000 145.300 21 40 990 2.50000 268 -13.0000 145.100 TC 45 4 109
1996067S16138 1996 20 SP EA ETHEL 1996-03-10 21:00:00 TS -13.1391 145.360 main 165 156 P_____P_____P_ SH191996 -13.0700 145.308 45 0 -13.2774 145.465 21 40 990 268 -13.0700 145.308 TC 45 4 111
1996067S16138 1996 20 SP EA ETHEL 1996-03-11 00:00:00 TS -13.2333 145.533 40 990 bom main 163 155 O_____O_____O_ jtwc_sh SH191996 -13.2000 145.500 45 0 -13.3000 145.600 21 40 990 2.50000 268 1010 -13.2000 145.500 TC 45 5 133
1996067S16138 1996 20 SP EA ETHEL 1996-03-11 03:00:00 TS -13.5109 145.771 main 164 144 P_____P_____P_ SH191996 -13.4850 145.722 45 0 -13.5625 145.867 21 40 990 268 -13.4850 145.722 TC 45 7 147
1996067S16138 1996 20 SP EA ETHEL 1996-03-11 06:00:00 TS -13.8333 145.933 40 990 bom main 144 117 O_____O_____O_ jtwc_sh SH191996 -13.8000 145.900 45 0 -13.9000 146.000 21 40 990 2.50000 268 -13.8000 145.900 TC 45 6 164
1996067S16138 1996 20 SP EA ETHEL 1996-03-11 09:00:00 TS -14.0775 145.934 main 117 93 P_____P_____P_ SH191996 -14.0150 146.003 45 0 -14.2025 145.798 21 42 989 322 -14.0150 146.003 TC 45 5 197
1996067S16138 1996 20 SP EA ETHEL 1996-03-11 12:00:00 TS -14.2667 145.800 45 988 bom main 93 77 O_____O_____O_ jtwc_sh SH191996 -14.2000 146.000 45 0 -14.4000 145.400 30 45 988 3.00000 376 -14.2000 146.000 TC 45 4 218
1996067S16138 1996 20 SP EA ETHEL 1996-03-11 15:00:00 TS -14.4103 145.665 main 77 46 P_____P_____P_ SH191996 -14.4218 146.007 45 0 -14.3875 144.980 30 50 985 376 -14.4218 146.007 TC 45 5 244
1996067S16138 1996 20 SP EA ETHEL 1996-03-11 18:00:00 TS -14.5000 145.300 55 982 bom main 46 0 O_____O_____O_ jtwc_sh SH191996 -14.6000 145.700 45 0 -14.3000 144.500 30 55 982 3.50000 376 -14.6000 145.700 TC 45 11 263
1996067S16138 1996 20 SP EA ETHEL 1996-03-11 21:00:00 TS -14.5393 144.512 main 0 0 P_____P_____P_ SH191996 -14.6815 144.760 45 0 -14.2549 144.015 30 47 983 322 -14.6815 144.760 TC 45 16 268
1996067S16138 1996 20 SP EA ETHEL 1996-03-12 00:00:00 TS -14.5667 143.633 40 985 bom main 0 0 O_____O_____O_ jtwc_sh SH191996 -14.7000 143.700 45 0 -14.3000 143.500 30 40 985 3.00000 268 1012 -14.7000 143.700 TC 45 14 266
1996067S16138 1996 20 SP EA ETHEL 1996-03-12 03:00:00 TS -14.6468 143.063 main 0 0 P_____P_____P_ SH191996 -14.7141 143.105 45 0 -14.5123 142.980 30 35 990 241 -14.7141 143.105 TC 45 11 261
1996067S16138 1996 20 SP EA ETHEL 1996-03-12 06:00:00 TS -14.7333 142.533 30 995 bom main 0 0 O_____O_____O_ jtwc_sh SH191996 -14.7000 142.600 45 0 -14.8000 142.400 20 30 995 214 -14.7000 142.600 TC 45 12 264
1996067S16138 1996 20 SP EA ETHEL 1996-03-12 09:00:00 TS -14.7656 141.873 main 0 0 P_____P_____P_ SH191996 -14.6123 141.944 45 0 -15.0724 141.730 20 35 993 214 -14.6123 141.944 TC 45 14 266
1996067S16138 1996 20 SP EA ETHEL 1996-03-12 12:00:00 TS -14.8333 141.133 40 992 bom main 54 54 O_____O_____O_ jtwc_sh SH191996 -14.6000 141.200 45 0 -15.3000 141.000 30 40 992 3.00000 214 -14.6000 141.200 TC 45 15 262
1996067S16138 1996 20 SP EA ETHEL 1996-03-12 15:00:00 TS -14.9807 140.334 main 140 140 P_____P_____P_ SH191996 -14.7825 140.365 45 0 -15.3772 140.272 30 40 990 281 -14.7825 140.365 TC 45 16 256
1996067S16138 1996 20 SP EA ETHEL 1996-03-12 18:00:00 TS -15.2333 139.500 40 988 bom main 197 126 O_____O_____O_ jtwc_sh SH191996 -15.1000 139.500 45 0 -15.5000 139.500 30 40 988 3.00000 349 -15.1000 139.500 TC 45 17 249
1996067S16138 1996 20 SP EA ETHEL 1996-03-12 21:00:00 TS -15.5954 138.693 main 126 30 P_____P_____P_ SH191996 -15.4694 138.715 45 0 -15.8475 138.650 30 42 986 281 -15.4694 138.715 TC 45 18 243
1996067S16138 1996 20 SP EA ETHEL 1996-03-13 00:00:00 TS -16.0333 137.867 45 985 bom main 30 0 O_____O_____O_ jtwc_sh SH191996 -15.9000 137.900 45 0 -16.3000 137.800 30 45 985 3.00000 214 1012 -15.9000 137.900 TC 45 19 242
1996067S16138 1996 20 SP EA ETHEL 1996-03-13 03:00:00 TS -16.4835 136.946 main 0 0 P_____P_____P_ SH191996 -16.3351 136.957 40 0 -16.7803 136.923 30 40 990 268 -16.3351 136.957 TC 40 19 243
1996067S16138 1996 20 SP EA ETHEL 1996-03-13 06:00:00 TS -16.9091 136.082 35 995 bom main 0 0 O_____O_____O_ jtwc_sh SH191996 -16.8000 136.000 35 0 -17.2000 136.300 30 35 995 322 -16.8000 136.000 TC 35 18 243
1996067S16138 1996 20 SP EA ETHEL 1996-03-13 09:00:00 TS -17.3006 135.285 main 0 0 P_____P_____P_ SH191996 -17.2626 135.067 35 0 -17.4522 136.154 30 32 -17.2626 135.067 TC 35 17 240
1996067S16138 1996 20 SI WA ETHEL 1996-03-13 12:00:00 TS -17.7778 134.522 30 bom main 0 0 O_____O_____O_ jtwc_sh SH191996 -17.8000 134.300 35 0 -17.6000 136.300 20 30 -17.8000 134.300 TC 35 19 231
1996067S16138 1996 20 SI WA ETHEL 1996-03-13 15:00:00 TS -18.4695 133.780 main 0 0 P___________P_ SH191996 -18.4695 133.780 35 0 20 -18.4695 133.780 TC 35 17 214
1996067S16138 1996 20 SI WA ETHEL 1996-03-13 18:00:00 TS -19.2000 133.500 main 0 0 O___________O_ jtwc_sh SH191996 -19.2000 133.500 35 0 -19.2000 133.500 TC 35 15 196
1996067S16138 1996 20 SI WA ETHEL 1996-03-13 21:00:00 TS -19.8848 133.360 main 0 0 P___________P_ SH191996 -19.8848 133.360 32 -1 -19.8848 133.360 TC 32 14 184
1996067S16138 1996 20 SI WA ETHEL 1996-03-14 00:00:00 TS -20.6000 133.400 main 0 0 O___________O_ jtwc_sh SH191996 -20.6000 133.400 30 -1 -20.6000 133.400 TC 30 15 176
1996067S16138 1996 20 SI WA ETHEL 1996-03-14 03:00:00 TS -21.4145 133.481 main 0 0 P___________P_ SH191996 -21.4145 133.481 27 -1 -21.4145 133.481 TC 27 17 167
1996067S16138 1996 20 SI WA ETHEL 1996-03-14 06:00:00 TS -22.2000 133.800 main 0 0 O___________O_ jtwc_sh SH191996 -22.2000 133.800 25 -1 -22.2000 133.800 TC 25 17 148
1996067S16138 1996 20 SI WA ETHEL 1996-03-14 09:00:00 TS -22.8677 134.452 main 0 0 P___________P_ SH191996 -22.8677 134.452 25 -1 -22.8677 134.452 TC 25 18 131
1996067S16138 1996 20 SP EA ETHEL 1996-03-14 12:00:00 TS -23.4000 135.300 main 0 0 O___________O_ jtwc_sh SH191996 -23.4000 135.300 25 -1 -23.4000 135.300 TC 25 18 121
1996067S16138 1996 20 SP EA ETHEL 1996-03-14 15:00:00 TS -23.8099 136.143 main 0 0 P___________P_ SH191996 -23.8099 136.143 25 -1 -23.8099 136.143 TC 25 17 114
1996067S16138 1996 20 SP EA ETHEL 1996-03-14 18:00:00 TS -24.1000 137.000 main 0 0 O___________O_ jtwc_sh SH191996 -24.1000 137.000 25 -1 -24.1000 137.000 TC 25 16 109
1996067S16138 1996 20 SP EA ETHEL 1996-03-14 21:00:00 TS -24.3220 137.808 main 0 0 P___________P_ SH191996 -24.3220 137.808 25 -1 -24.3220 137.808 TC 25 15 105
1996067S16138 1996 20 SP EA ETHEL 1996-03-15 00:00:00 TS -24.5000 138.600 main 0 0 O___________O_ jtwc_sh SH191996 -24.5000 138.600 25 -1 -24.5000 138.600 TC 25 15 106
1996067S16138 1996 20 SP EA ETHEL 1996-03-15 03:00:00 TS -24.7289 139.362 main 0 0 P___________P_ SH191996 -24.7289 139.362 25 -1 -24.7289 139.362 TC 25 15 105
1996067S16138 1996 20 SP EA ETHEL 1996-03-15 06:00:00 TS -24.9000 140.200 main 0 0 O___________O_ jtwc_sh SH191996 -24.9000 140.200 25 -1 -24.9000 140.200 TC 25 17 98
1996067S16138 1996 20 SP EA ETHEL 1996-03-15 09:00:00 TS -24.9526 141.220 main 0 0 P___________P_ SH191996 -24.9526 141.220 25 -1 -24.9526 141.220 TC 25 19 90
1996067S16138 1996 20 SP EA ETHEL 1996-03-15 12:00:00 TS -24.9000 142.300 main 0 0 O___________O_ jtwc_sh SH191996 -24.9000 142.300 25 -1 -24.9000 142.300 TC 25 19 85
1996067S16138 1996 20 SP EA ETHEL 1996-03-15 15:00:00 TS -24.8020 143.322 main 0 0 P___________P_ SH191996 -24.8020 143.322 25 -1 -24.8020 143.322 TC 25 18 81
1996067S16138 1996 20 SP EA ETHEL 1996-03-15 18:00:00 TS -24.6000 144.300 main 0 0 O___________O_ jtwc_sh SH191996 -24.6000 144.300 25 -1 -24.6000 144.300 TC 25 18 73
1996067S16138 1996 20 SP EA ETHEL 1996-03-15 21:00:00 TS -24.2798 145.253 main 0 0 P___________P_ SH191996 -24.2798 145.253 22 -1 -24.2798 145.253 TC 22 18 67
1996067S16138 1996 20 SP EA ETHEL 1996-03-16 00:00:00 TS -23.9000 146.100 main 0 0 O___________O_ jtwc_sh SH191996 -23.9000 146.100 20 -1 -23.9000 146.100 TC 20 16 63
1996067S16138 1996 20 SP EA ETHEL 1996-03-16 03:00:00 TS -23.5643 146.794 main 0 0 P___________P_ SH191996 -23.5643 146.794 20 -1 -23.5643 146.794 TC 20 14 60
1996067S16138 1996 20 SP EA ETHEL 1996-03-16 06:00:00 TS -23.2000 147.400 main 0 0 O___________O_ jtwc_sh SH191996 -23.2000 147.400 20 -1 -23.2000 147.400 TC 20 13 54
1996067S16138 1996 20 SP EA ETHEL 1996-03-16 09:00:00 TS -22.7868 147.977 main 0 0 P___________P_ SH191996 -22.7868 147.977 17 -1 -22.7868 147.977 TC 17 14 51
1996067S16138 1996 20 SP EA ETHEL 1996-03-16 12:00:00 TS -22.3000 148.600 main 0 0 O___________O_ jtwc_sh SH191996 -22.3000 148.600 15 -1 -22.3000 148.600 TC 15 17 50
1996067S16138 1996 20 SP EA ETHEL 1996-03-16 15:00:00 TS -21.7298 149.355 main 0 0 P___________P_ SH191996 -21.7298 149.355 15 -1 -21.7298 149.355 TC 15 19 51
1996067S16138 1996 20 SP EA ETHEL 1996-03-16 18:00:00 TS -21.1000 150.200 main 99 99 O___________O_ jtwc_sh SH191996 -21.1000 150.200 15 -1 -21.1000 150.200 TC 15 21 52
1996067S16138 1996 20 SP EA ETHEL 1996-03-16 21:00:00 TS -20.4534 151.091 main 208 208 P___________P_ SH191996 -20.4534 151.091 15 -1 -20.4534 151.091 TC 15 21 52
1996067S16138 1996 20 SP EA ETHEL 1996-03-17 00:00:00 TS -19.8000 152.000 main 320 O___________O_ jtwc_sh SH191996 -19.8000 152.000 15 -1 -19.8000 152.000 TC 15 22 53

Digital Typhoon Data and Search

About IBTrACS Database

This database is a web-friendly format of International Best Track Archive for Climate Stewardship (IBTrACS), a global best track data archive curated by NOAA dating back to 1842.

Updated: 2021-12-03